sensor_id;sensor_type;location;lat;lon;timestamp;P1;durP1;ratioP1;P2;durP2;ratioP2
77278;SDS011;66332;50.436;15.378;2024-02-14T00:00:09;15.98;;;7.53;;
77278;SDS011;66332;50.436;15.378;2024-02-14T00:05:14;16.52;;;7.60;;
77278;SDS011;66332;50.436;15.378;2024-02-14T00:09:54;17.10;;;7.20;;
77278;SDS011;66332;50.436;15.378;2024-02-14T00:14:36;16.60;;;7.55;;
77278;SDS011;66332;50.436;15.378;2024-02-14T00:19:16;16.63;;;8.05;;
77278;SDS011;66332;50.436;15.378;2024-02-14T00:23:57;16.58;;;6.97;;
77278;SDS011;66332;50.436;15.378;2024-02-14T00:28:38;16.42;;;7.05;;
77278;SDS011;66332;50.436;15.378;2024-02-14T00:33:19;16.80;;;7.13;;
77278;SDS011;66332;50.436;15.378;2024-02-14T00:42:42;16.55;;;6.28;;
77278;SDS011;66332;50.436;15.378;2024-02-14T00:47:23;20.17;;;7.43;;
77278;SDS011;66332;50.436;15.378;2024-02-14T00:52:04;26.77;;;9.23;;
77278;SDS011;66332;50.436;15.378;2024-02-14T00:56:45;33.92;;;13.18;;
77278;SDS011;66332;50.436;15.378;2024-02-14T01:01:26;34.95;;;10.60;;
77278;SDS011;66332;50.436;15.378;2024-02-14T01:06:06;26.65;;;9.05;;
77278;SDS011;66332;50.436;15.378;2024-02-14T01:10:47;24.55;;;8.57;;
77278;SDS011;66332;50.436;15.378;2024-02-14T01:15:32;25.08;;;8.93;;
77278;SDS011;66332;50.436;15.378;2024-02-14T01:20:13;27.90;;;9.07;;
77278;SDS011;66332;50.436;15.378;2024-02-14T01:24:55;22.88;;;8.38;;
77278;SDS011;66332;50.436;15.378;2024-02-14T01:29:36;25.15;;;8.45;;
77278;SDS011;66332;50.436;15.378;2024-02-14T01:34:17;20.17;;;7.20;;
77278;SDS011;66332;50.436;15.378;2024-02-14T01:38:57;20.92;;;7.78;;
77278;SDS011;66332;50.436;15.378;2024-02-14T01:43:38;14.00;;;6.15;;
77278;SDS011;66332;50.436;15.378;2024-02-14T01:48:19;14.05;;;7.00;;
77278;SDS011;66332;50.436;15.378;2024-02-14T01:53:01;17.10;;;6.95;;
77278;SDS011;66332;50.436;15.378;2024-02-14T01:57:43;17.60;;;6.72;;
77278;SDS011;66332;50.436;15.378;2024-02-14T02:02:25;16.25;;;7.15;;
77278;SDS011;66332;50.436;15.378;2024-02-14T02:07:07;18.52;;;8.48;;
77278;SDS011;66332;50.436;15.378;2024-02-14T02:11:48;14.80;;;6.90;;
77278;SDS011;66332;50.436;15.378;2024-02-14T02:21:11;16.20;;;7.22;;
77278;SDS011;66332;50.436;15.378;2024-02-14T02:25:53;17.58;;;7.82;;
77278;SDS011;66332;50.436;15.378;2024-02-14T02:30:35;17.35;;;6.90;;
77278;SDS011;66332;50.436;15.378;2024-02-14T02:35:16;21.13;;;9.18;;
77278;SDS011;66332;50.436;15.378;2024-02-14T02:40:01;18.45;;;8.00;;
77278;SDS011;66332;50.436;15.378;2024-02-14T02:44:42;18.38;;;7.60;;
77278;SDS011;66332;50.436;15.378;2024-02-14T02:49:23;18.83;;;7.22;;
77278;SDS011;66332;50.436;15.378;2024-02-14T02:54:03;18.67;;;7.05;;
77278;SDS011;66332;50.436;15.378;2024-02-14T02:58:44;17.25;;;7.45;;
77278;SDS011;66332;50.436;15.378;2024-02-14T03:03:25;16.75;;;7.15;;
77278;SDS011;66332;50.436;15.378;2024-02-14T03:12:48;19.50;;;7.85;;
77278;SDS011;66332;50.436;15.378;2024-02-14T03:17:29;19.38;;;8.32;;
77278;SDS011;66332;50.436;15.378;2024-02-14T03:22:10;20.55;;;8.07;;
77278;SDS011;66332;50.436;15.378;2024-02-14T03:26:51;17.90;;;7.45;;
77278;SDS011;66332;50.436;15.378;2024-02-14T03:31:34;20.85;;;7.93;;
77278;SDS011;66332;50.436;15.378;2024-02-14T03:36:14;18.98;;;7.95;;
77278;SDS011;66332;50.436;15.378;2024-02-14T03:40:55;23.27;;;9.05;;
77278;SDS011;66332;50.436;15.378;2024-02-14T03:45:36;23.00;;;8.00;;
77278;SDS011;66332;50.436;15.378;2024-02-14T03:50:17;20.00;;;8.88;;
77278;SDS011;66332;50.436;15.378;2024-02-14T03:54:58;20.60;;;8.43;;
77278;SDS011;66332;50.436;15.378;2024-02-14T03:59:39;17.55;;;8.18;;
77278;SDS011;66332;50.436;15.378;2024-02-14T04:04:21;19.90;;;8.32;;
77278;SDS011;66332;50.436;15.378;2024-02-14T04:09:02;23.10;;;8.68;;
77278;SDS011;66332;50.436;15.378;2024-02-14T04:13:43;18.70;;;8.40;;
77278;SDS011;66332;50.436;15.378;2024-02-14T04:18:23;19.00;;;9.02;;
77278;SDS011;66332;50.436;15.378;2024-02-14T04:23:04;19.25;;;8.85;;
77278;SDS011;66332;50.436;15.378;2024-02-14T04:27:47;19.10;;;8.13;;
77278;SDS011;66332;50.436;15.378;2024-02-14T04:32:28;19.85;;;8.30;;
77278;SDS011;66332;50.436;15.378;2024-02-14T04:37:09;20.00;;;9.13;;
77278;SDS011;66332;50.436;15.378;2024-02-14T04:41:54;18.83;;;8.75;;
77278;SDS011;66332;50.436;15.378;2024-02-14T04:46:34;23.48;;;10.05;;
77278;SDS011;66332;50.436;15.378;2024-02-14T04:51:16;19.50;;;9.55;;
77278;SDS011;66332;50.436;15.378;2024-02-14T04:55:57;23.00;;;10.02;;
77278;SDS011;66332;50.436;15.378;2024-02-14T05:00:38;22.58;;;10.55;;
77278;SDS011;66332;50.436;15.378;2024-02-14T05:05:19;24.05;;;11.10;;
77278;SDS011;66332;50.436;15.378;2024-02-14T05:10:00;24.02;;;10.05;;
77278;SDS011;66332;50.436;15.378;2024-02-14T05:14:41;26.38;;;10.48;;
77278;SDS011;66332;50.436;15.378;2024-02-14T05:19:22;19.60;;;9.43;;
77278;SDS011;66332;50.436;15.378;2024-02-14T05:24:03;25.13;;;9.88;;
77278;SDS011;66332;50.436;15.378;2024-02-14T05:28:44;22.63;;;10.02;;
77278;SDS011;66332;50.436;15.378;2024-02-14T05:33:25;24.65;;;10.27;;
77278;SDS011;66332;50.436;15.378;2024-02-14T05:38:06;23.75;;;10.38;;
77278;SDS011;66332;50.436;15.378;2024-02-14T05:42:48;25.40;;;11.40;;
77278;SDS011;66332;50.436;15.378;2024-02-14T05:47:28;27.77;;;10.95;;
77278;SDS011;66332;50.436;15.378;2024-02-14T05:52:10;23.92;;;10.90;;
77278;SDS011;66332;50.436;15.378;2024-02-14T05:56:51;22.95;;;11.13;;
77278;SDS011;66332;50.436;15.378;2024-02-14T06:01:32;22.40;;;10.07;;
77278;SDS011;66332;50.436;15.378;2024-02-14T06:06:12;24.20;;;10.98;;
77278;SDS011;66332;50.436;15.378;2024-02-14T06:10:53;20.77;;;10.52;;
77278;SDS011;66332;50.436;15.378;2024-02-14T06:15:34;27.08;;;11.43;;
77278;SDS011;66332;50.436;15.378;2024-02-14T06:20:15;22.58;;;11.00;;
77278;SDS011;66332;50.436;15.378;2024-02-14T06:24:55;23.35;;;11.68;;
77278;SDS011;66332;50.436;15.378;2024-02-14T06:29:36;26.63;;;11.63;;
77278;SDS011;66332;50.436;15.378;2024-02-14T06:34:17;23.90;;;11.52;;
77278;SDS011;66332;50.436;15.378;2024-02-14T06:38:58;27.17;;;11.88;;
77278;SDS011;66332;50.436;15.378;2024-02-14T06:43:40;26.00;;;11.55;;
77278;SDS011;66332;50.436;15.378;2024-02-14T06:48:20;24.75;;;11.18;;
77278;SDS011;66332;50.436;15.378;2024-02-14T06:53:04;24.38;;;11.25;;
77278;SDS011;66332;50.436;15.378;2024-02-14T06:57:45;24.10;;;11.82;;
77278;SDS011;66332;50.436;15.378;2024-02-14T07:02:26;27.48;;;13.15;;
77278;SDS011;66332;50.436;15.378;2024-02-14T07:07:08;28.42;;;12.40;;
77278;SDS011;66332;50.436;15.378;2024-02-14T07:11:49;29.67;;;13.10;;
77278;SDS011;66332;50.436;15.378;2024-02-14T07:16:31;31.85;;;12.90;;
77278;SDS011;66332;50.436;15.378;2024-02-14T07:21:12;31.92;;;13.27;;
77278;SDS011;66332;50.436;15.378;2024-02-14T07:25:53;28.90;;;12.77;;
77278;SDS011;66332;50.436;15.378;2024-02-14T07:30:34;27.80;;;13.68;;
77278;SDS011;66332;50.436;15.378;2024-02-14T07:35:16;30.05;;;14.10;;
77278;SDS011;66332;50.436;15.378;2024-02-14T07:39:57;30.02;;;13.68;;
77278;SDS011;66332;50.436;15.378;2024-02-14T07:44:37;27.35;;;13.30;;
77278;SDS011;66332;50.436;15.378;2024-02-14T07:49:18;25.30;;;12.18;;
77278;SDS011;66332;50.436;15.378;2024-02-14T07:54:02;27.33;;;13.23;;
77278;SDS011;66332;50.436;15.378;2024-02-14T07:58:44;29.77;;;13.25;;
77278;SDS011;66332;50.436;15.378;2024-02-14T08:03:26;31.10;;;12.77;;
77278;SDS011;66332;50.436;15.378;2024-02-14T08:08:07;26.95;;;12.73;;
77278;SDS011;66332;50.436;15.378;2024-02-14T08:12:48;24.80;;;10.95;;
77278;SDS011;66332;50.436;15.378;2024-02-14T08:17:29;23.58;;;10.30;;
77278;SDS011;66332;50.436;15.378;2024-02-14T08:22:10;21.83;;;11.27;;
77278;SDS011;66332;50.436;15.378;2024-02-14T08:26:50;25.15;;;10.85;;
77278;SDS011;66332;50.436;15.378;2024-02-14T08:31:32;24.67;;;10.52;;
77278;SDS011;66332;50.436;15.378;2024-02-14T08:36:13;22.25;;;10.10;;
77278;SDS011;66332;50.436;15.378;2024-02-14T08:40:54;21.13;;;10.85;;
77278;SDS011;66332;50.436;15.378;2024-02-14T08:45:35;18.98;;;9.13;;
77278;SDS011;66332;50.436;15.378;2024-02-14T08:50:15;22.58;;;9.43;;
77278;SDS011;66332;50.436;15.378;2024-02-14T08:54:57;21.48;;;10.30;;
77278;SDS011;66332;50.436;15.378;2024-02-14T08:59:37;16.98;;;8.02;;
77278;SDS011;66332;50.436;15.378;2024-02-14T09:04:18;19.83;;;9.85;;
77278;SDS011;66332;50.436;15.378;2024-02-14T09:08:59;13.50;;;6.57;;
77278;SDS011;66332;50.436;15.378;2024-02-14T09:13:40;21.77;;;9.85;;
77278;SDS011;66332;50.436;15.378;2024-02-14T09:18:21;21.42;;;9.30;;
77278;SDS011;66332;50.436;15.378;2024-02-14T09:23:02;18.90;;;9.23;;
77278;SDS011;66332;50.436;15.378;2024-02-14T09:27:43;16.88;;;8.57;;
77278;SDS011;66332;50.436;15.378;2024-02-14T09:32:27;17.17;;;8.82;;
77278;SDS011;66332;50.436;15.378;2024-02-14T09:37:08;20.20;;;8.90;;
77278;SDS011;66332;50.436;15.378;2024-02-14T09:41:54;18.02;;;8.63;;
77278;SDS011;66332;50.436;15.378;2024-02-14T09:51:19;19.35;;;8.25;;
77278;SDS011;66332;50.436;15.378;2024-02-14T09:55:59;17.60;;;7.93;;
77278;SDS011;66332;50.436;15.378;2024-02-14T10:00:43;17.20;;;7.80;;
77278;SDS011;66332;50.436;15.378;2024-02-14T10:05:24;15.02;;;6.88;;
77278;SDS011;66332;50.436;15.378;2024-02-14T10:10:06;14.40;;;7.07;;
77278;SDS011;66332;50.436;15.378;2024-02-14T10:14:47;13.15;;;5.68;;
77278;SDS011;66332;50.436;15.378;2024-02-14T10:19:28;14.85;;;6.38;;
77278;SDS011;66332;50.436;15.378;2024-02-14T10:24:09;11.10;;;5.60;;
77278;SDS011;66332;50.436;15.378;2024-02-14T10:28:52;12.05;;;5.82;;
77278;SDS011;66332;50.436;15.378;2024-02-14T10:33:33;13.68;;;5.65;;
77278;SDS011;66332;50.436;15.378;2024-02-14T10:38:14;13.90;;;5.75;;
77278;SDS011;66332;50.436;15.378;2024-02-14T10:42:56;13.48;;;6.45;;
77278;SDS011;66332;50.436;15.378;2024-02-14T10:47:40;12.95;;;6.32;;
77278;SDS011;66332;50.436;15.378;2024-02-14T10:52:26;9.32;;;4.75;;
77278;SDS011;66332;50.436;15.378;2024-02-14T10:57:11;10.68;;;5.60;;
77278;SDS011;66332;50.436;15.378;2024-02-14T11:01:52;11.20;;;5.28;;
77278;SDS011;66332;50.436;15.378;2024-02-14T11:06:53;12.45;;;5.40;;
77278;SDS011;66332;50.436;15.378;2024-02-14T11:11:35;12.90;;;5.35;;
77278;SDS011;66332;50.436;15.378;2024-02-14T11:16:17;9.60;;;4.25;;
77278;SDS011;66332;50.436;15.378;2024-02-14T11:20:58;13.20;;;5.40;;
77278;SDS011;66332;50.436;15.378;2024-02-14T11:25:39;12.00;;;5.30;;
77278;SDS011;66332;50.436;15.378;2024-02-14T11:30:29;9.02;;;4.45;;
77278;SDS011;66332;50.436;15.378;2024-02-14T11:35:11;14.30;;;5.53;;
77278;SDS011;66332;50.436;15.378;2024-02-14T11:39:53;12.02;;;5.40;;
77278;SDS011;66332;50.436;15.378;2024-02-14T11:44:34;13.27;;;5.78;;
77278;SDS011;66332;50.436;15.378;2024-02-14T11:49:14;14.55;;;6.05;;
77278;SDS011;66332;50.436;15.378;2024-02-14T11:53:57;14.38;;;6.13;;
77278;SDS011;66332;50.436;15.378;2024-02-14T11:58:44;12.63;;;6.15;;
77278;SDS011;66332;50.436;15.378;2024-02-14T12:03:25;12.88;;;6.15;;
77278;SDS011;66332;50.436;15.378;2024-02-14T12:08:07;11.85;;;5.60;;
77278;SDS011;66332;50.436;15.378;2024-02-14T12:12:48;13.77;;;6.03;;
77278;SDS011;66332;50.436;15.378;2024-02-14T12:17:31;13.75;;;6.18;;
77278;SDS011;66332;50.436;15.378;2024-02-14T12:22:12;15.57;;;7.03;;
77278;SDS011;66332;50.436;15.378;2024-02-14T12:26:58;13.00;;;6.40;;
77278;SDS011;66332;50.436;15.378;2024-02-14T12:31:38;11.65;;;6.35;;
77278;SDS011;66332;50.436;15.378;2024-02-14T12:36:19;14.60;;;6.97;;
77278;SDS011;66332;50.436;15.378;2024-02-14T12:41:00;16.80;;;6.93;;
77278;SDS011;66332;50.436;15.378;2024-02-14T12:45:42;15.00;;;7.25;;
77278;SDS011;66332;50.436;15.378;2024-02-14T12:50:24;17.73;;;7.28;;
77278;SDS011;66332;50.436;15.378;2024-02-14T12:55:05;13.32;;;6.63;;
77278;SDS011;66332;50.436;15.378;2024-02-14T12:59:46;13.27;;;6.65;;
77278;SDS011;66332;50.436;15.378;2024-02-14T13:04:27;13.93;;;6.10;;
77278;SDS011;66332;50.436;15.378;2024-02-14T13:09:07;15.15;;;6.35;;
77278;SDS011;66332;50.436;15.378;2024-02-14T13:13:48;13.18;;;6.40;;
77278;SDS011;66332;50.436;15.378;2024-02-14T13:18:29;13.20;;;6.28;;
77278;SDS011;66332;50.436;15.378;2024-02-14T13:23:10;14.63;;;6.40;;
77278;SDS011;66332;50.436;15.378;2024-02-14T13:27:51;13.02;;;6.53;;
77278;SDS011;66332;50.436;15.378;2024-02-14T13:32:32;14.60;;;6.93;;
77278;SDS011;66332;50.436;15.378;2024-02-14T13:37:13;12.63;;;6.93;;
77278;SDS011;66332;50.436;15.378;2024-02-14T13:41:56;14.75;;;6.82;;
77278;SDS011;66332;50.436;15.378;2024-02-14T13:46:38;16.02;;;7.50;;
77278;SDS011;66332;50.436;15.378;2024-02-14T13:51:24;14.70;;;7.13;;
77278;SDS011;66332;50.436;15.378;2024-02-14T13:56:05;20.23;;;7.75;;
77278;SDS011;66332;50.436;15.378;2024-02-14T14:00:46;19.02;;;7.28;;
77278;SDS011;66332;50.436;15.378;2024-02-14T14:05:27;15.45;;;7.20;;
77278;SDS011;66332;50.436;15.378;2024-02-14T14:10:08;15.75;;;8.10;;
77278;SDS011;66332;50.436;15.378;2024-02-14T14:14:49;17.30;;;7.97;;
77278;SDS011;66332;50.436;15.378;2024-02-14T14:19:30;14.27;;;6.57;;
77278;SDS011;66332;50.436;15.378;2024-02-14T14:24:11;14.40;;;7.22;;
77278;SDS011;66332;50.436;15.378;2024-02-14T14:28:52;16.08;;;7.45;;
77278;SDS011;66332;50.436;15.378;2024-02-14T14:33:35;14.55;;;6.82;;
77278;SDS011;66332;50.436;15.378;2024-02-14T14:38:16;14.45;;;6.80;;
77278;SDS011;66332;50.436;15.378;2024-02-14T14:42:57;16.42;;;6.88;;
77278;SDS011;66332;50.436;15.378;2024-02-14T14:47:38;15.02;;;6.85;;
77278;SDS011;66332;50.436;15.378;2024-02-14T14:52:19;13.77;;;6.72;;
77278;SDS011;66332;50.436;15.378;2024-02-14T14:57:00;14.93;;;7.43;;
77278;SDS011;66332;50.436;15.378;2024-02-14T15:01:44;14.63;;;7.25;;
77278;SDS011;66332;50.436;15.378;2024-02-14T15:06:25;19.30;;;8.60;;
77278;SDS011;66332;50.436;15.378;2024-02-14T15:11:06;18.30;;;6.80;;
77278;SDS011;66332;50.436;15.378;2024-02-14T15:15:47;14.55;;;6.95;;
77278;SDS011;66332;50.436;15.378;2024-02-14T15:20:28;16.08;;;7.15;;
77278;SDS011;66332;50.436;15.378;2024-02-14T15:25:10;14.40;;;6.88;;
77278;SDS011;66332;50.436;15.378;2024-02-14T15:29:51;15.75;;;7.78;;
77278;SDS011;66332;50.436;15.378;2024-02-14T15:34:50;14.48;;;7.72;;
77278;SDS011;66332;50.436;15.378;2024-02-14T15:48:53;17.20;;;9.30;;
77278;SDS011;66332;50.436;15.378;2024-02-14T15:58:16;14.75;;;6.88;;
77278;SDS011;66332;50.436;15.378;2024-02-14T16:03:00;15.07;;;7.75;;
77278;SDS011;66332;50.436;15.378;2024-02-14T16:07:41;18.08;;;8.45;;
77278;SDS011;66332;50.436;15.378;2024-02-14T16:12:22;16.48;;;7.13;;
77278;SDS011;66332;50.436;15.378;2024-02-14T16:17:03;17.88;;;7.75;;
77278;SDS011;66332;50.436;15.378;2024-02-14T16:21:44;12.38;;;6.88;;
77278;SDS011;66332;50.436;15.378;2024-02-14T16:26:25;23.52;;;10.85;;
77278;SDS011;66332;50.436;15.378;2024-02-14T16:31:06;21.05;;;9.25;;
77278;SDS011;66332;50.436;15.378;2024-02-14T16:35:46;22.10;;;9.82;;
77278;SDS011;66332;50.436;15.378;2024-02-14T16:40:27;19.42;;;10.00;;
77278;SDS011;66332;50.436;15.378;2024-02-14T16:45:10;23.90;;;11.93;;
77278;SDS011;66332;50.436;15.378;2024-02-14T16:49:51;24.90;;;12.60;;
77278;SDS011;66332;50.436;15.378;2024-02-14T16:54:32;45.10;;;16.40;;
77278;SDS011;66332;50.436;15.378;2024-02-14T16:59:13;24.55;;;13.27;;
77278;SDS011;66332;50.436;15.378;2024-02-14T17:03:55;25.75;;;12.23;;
77278;SDS011;66332;50.436;15.378;2024-02-14T17:08:37;24.75;;;11.68;;
77278;SDS011;66332;50.436;15.378;2024-02-14T17:13:17;23.67;;;11.15;;
77278;SDS011;66332;50.436;15.378;2024-02-14T17:17:58;24.85;;;12.52;;
77278;SDS011;66332;50.436;15.378;2024-02-14T17:22:39;26.67;;;13.65;;
77278;SDS011;66332;50.436;15.378;2024-02-14T17:27:20;25.35;;;12.70;;
77278;SDS011;66332;50.436;15.378;2024-02-14T17:32:02;24.95;;;13.13;;
77278;SDS011;66332;50.436;15.378;2024-02-14T17:36:43;27.38;;;16.92;;
77278;SDS011;66332;50.436;15.378;2024-02-14T17:41:25;20.17;;;10.80;;
77278;SDS011;66332;50.436;15.378;2024-02-14T17:50:47;24.98;;;13.00;;
77278;SDS011;66332;50.436;15.378;2024-02-14T17:55:29;21.30;;;11.15;;
77278;SDS011;66332;50.436;15.378;2024-02-14T18:00:10;22.23;;;12.70;;
77278;SDS011;66332;50.436;15.378;2024-02-14T18:04:52;24.48;;;13.15;;
77278;SDS011;66332;50.436;15.378;2024-02-14T18:09:33;26.13;;;13.98;;
77278;SDS011;66332;50.436;15.378;2024-02-14T18:14:14;28.65;;;14.65;;
77278;SDS011;66332;50.436;15.378;2024-02-14T18:18:55;24.52;;;12.35;;
77278;SDS011;66332;50.436;15.378;2024-02-14T18:23:36;26.38;;;12.27;;
77278;SDS011;66332;50.436;15.378;2024-02-14T18:28:17;26.45;;;12.82;;
77278;SDS011;66332;50.436;15.378;2024-02-14T18:32:59;28.75;;;14.10;;
77278;SDS011;66332;50.436;15.378;2024-02-14T18:37:41;27.70;;;12.55;;
77278;SDS011;66332;50.436;15.378;2024-02-14T18:42:22;24.65;;;11.77;;
77278;SDS011;66332;50.436;15.378;2024-02-14T18:47:03;22.35;;;12.20;;
77278;SDS011;66332;50.436;15.378;2024-02-14T18:51:44;30.83;;;16.23;;
77278;SDS011;66332;50.436;15.378;2024-02-14T18:56:25;23.92;;;12.80;;
77278;SDS011;66332;50.436;15.378;2024-02-14T19:01:06;25.33;;;12.45;;
77278;SDS011;66332;50.436;15.378;2024-02-14T19:05:48;24.23;;;13.75;;
77278;SDS011;66332;50.436;15.378;2024-02-14T19:10:29;28.63;;;13.88;;
77278;SDS011;66332;50.436;15.378;2024-02-14T19:15:10;26.53;;;14.07;;
77278;SDS011;66332;50.436;15.378;2024-02-14T19:19:51;24.95;;;13.13;;
77278;SDS011;66332;50.436;15.378;2024-02-14T19:24:32;22.83;;;11.43;;
77278;SDS011;66332;50.436;15.378;2024-02-14T19:29:13;21.38;;;11.30;;
77278;SDS011;66332;50.436;15.378;2024-02-14T19:33:54;25.85;;;13.15;;
77278;SDS011;66332;50.436;15.378;2024-02-14T19:38:35;29.83;;;13.63;;
77278;SDS011;66332;50.436;15.378;2024-02-14T19:43:15;25.23;;;12.45;;
77278;SDS011;66332;50.436;15.378;2024-02-14T19:48:00;27.08;;;13.07;;
77278;SDS011;66332;50.436;15.378;2024-02-14T19:52:42;26.55;;;13.02;;
77278;SDS011;66332;50.436;15.378;2024-02-14T19:57:23;22.27;;;13.63;;
77278;SDS011;66332;50.436;15.378;2024-02-14T20:02:04;30.08;;;14.93;;
77278;SDS011;66332;50.436;15.378;2024-02-14T20:06:45;28.05;;;14.55;;
77278;SDS011;66332;50.436;15.378;2024-02-14T20:11:26;30.05;;;16.45;;
77278;SDS011;66332;50.436;15.378;2024-02-14T20:16:07;30.40;;;17.30;;
77278;SDS011;66332;50.436;15.378;2024-02-14T20:20:48;25.83;;;13.38;;
77278;SDS011;66332;50.436;15.378;2024-02-14T20:25:29;21.98;;;11.35;;
77278;SDS011;66332;50.436;15.378;2024-02-14T20:30:10;24.65;;;13.25;;
77278;SDS011;66332;50.436;15.378;2024-02-14T20:34:53;25.10;;;11.15;;
77278;SDS011;66332;50.436;15.378;2024-02-14T20:39:34;26.08;;;12.43;;
77278;SDS011;66332;50.436;15.378;2024-02-14T20:44:15;25.80;;;12.90;;
77278;SDS011;66332;50.436;15.378;2024-02-14T20:59:19;24.83;;;12.45;;
77278;SDS011;66332;50.436;15.378;2024-02-14T21:18:31;31.15;;;16.27;;
77278;SDS011;66332;50.436;15.378;2024-02-14T21:23:12;27.85;;;13.55;;
77278;SDS011;66332;50.436;15.378;2024-02-14T21:32:43;25.45;;;12.77;;
77278;SDS011;66332;50.436;15.378;2024-02-14T21:42:14;25.55;;;12.15;;
77278;SDS011;66332;50.436;15.378;2024-02-14T21:56:35;22.90;;;11.57;;
77278;SDS011;66332;50.436;15.378;2024-02-14T22:01:16;24.70;;;12.48;;
77278;SDS011;66332;50.436;15.378;2024-02-14T22:05:58;24.52;;;12.48;;
77278;SDS011;66332;50.436;15.378;2024-02-14T22:10:40;27.48;;;13.13;;
77278;SDS011;66332;50.436;15.378;2024-02-14T22:15:20;30.23;;;17.27;;
77278;SDS011;66332;50.436;15.378;2024-02-14T22:20:04;25.17;;;13.90;;
77278;SDS011;66332;50.436;15.378;2024-02-14T22:24:46;24.55;;;13.88;;
77278;SDS011;66332;50.436;15.378;2024-02-14T22:29:27;28.20;;;15.90;;
77278;SDS011;66332;50.436;15.378;2024-02-14T22:34:08;23.95;;;13.10;;
77278;SDS011;66332;50.436;15.378;2024-02-14T22:38:49;27.38;;;13.00;;
77278;SDS011;66332;50.436;15.378;2024-02-14T22:43:30;24.77;;;14.35;;
77278;SDS011;66332;50.436;15.378;2024-02-14T22:48:11;23.20;;;12.27;;
77278;SDS011;66332;50.436;15.378;2024-02-14T22:52:53;25.17;;;12.90;;
77278;SDS011;66332;50.436;15.378;2024-02-14T22:57:34;25.33;;;12.70;;
77278;SDS011;66332;50.436;15.378;2024-02-14T23:02:15;22.98;;;12.13;;
77278;SDS011;66332;50.436;15.378;2024-02-14T23:06:57;24.08;;;13.10;;
77278;SDS011;66332;50.436;15.378;2024-02-14T23:11:40;26.67;;;12.48;;
77278;SDS011;66332;50.436;15.378;2024-02-14T23:16:22;22.75;;;12.15;;
77278;SDS011;66332;50.436;15.378;2024-02-14T23:21:02;22.95;;;11.65;;
77278;SDS011;66332;50.436;15.378;2024-02-14T23:25:43;22.58;;;12.27;;
77278;SDS011;66332;50.436;15.378;2024-02-14T23:30:27;22.05;;;11.35;;
77278;SDS011;66332;50.436;15.378;2024-02-14T23:35:09;22.45;;;12.68;;
77278;SDS011;66332;50.436;15.378;2024-02-14T23:39:50;22.60;;;12.85;;
77278;SDS011;66332;50.436;15.378;2024-02-14T23:44:30;23.50;;;11.73;;
77278;SDS011;66332;50.436;15.378;2024-02-14T23:49:11;22.40;;;10.85;;
77278;SDS011;66332;50.436;15.378;2024-02-14T23:53:52;20.58;;;11.48;;
77278;SDS011;66332;50.436;15.378;2024-02-14T23:58:33;22.38;;;11.52;;
